createdAt,value
2023-11-20T07:23:14.844Z,31.60
2023-11-20T07:25:44.371Z,28.33
2023-11-20T07:28:11.450Z,32.05
2023-11-20T07:30:38.972Z,27.13
2023-11-20T07:33:07.470Z,25.67
2023-11-20T07:35:36.866Z,26.10
2023-11-20T07:38:04.237Z,34.15
2023-11-20T07:40:31.307Z,28.85
2023-11-20T07:42:58.424Z,24.45
2023-11-20T07:45:26.184Z,24.42
2023-11-20T07:47:53.272Z,25.23
2023-11-20T07:50:20.495Z,24.98
2023-11-20T07:52:47.714Z,29.73
2023-11-20T07:55:14.762Z,24.02
2023-11-20T07:57:42.820Z,22.30
2023-11-20T08:00:13.560Z,26.30
2023-11-20T08:02:41.186Z,22.60
2023-11-20T08:05:10.254Z,24.27
2023-11-20T08:07:37.689Z,24.10
2023-11-20T08:10:06.971Z,25.95
2023-11-20T08:12:35.088Z,25.13
2023-11-20T08:15:04.009Z,20.77
2023-11-20T08:17:31.110Z,23.45
2023-11-20T08:19:58.215Z,23.95
2023-11-20T08:22:25.238Z,19.15
2023-11-20T08:24:52.369Z,19.10
2023-11-20T08:27:19.511Z,15.80
2023-11-20T08:29:46.509Z,23.10
2023-11-20T08:32:13.817Z,24.00
2023-11-20T08:34:40.980Z,21.48
2023-11-20T08:37:08.059Z,18.23
2023-11-20T08:39:43.788Z,19.52
2023-11-20T08:42:10.849Z,20.42
2023-11-20T08:44:37.919Z,17.10
2023-11-20T08:47:07.163Z,20.20
2023-11-20T08:49:34.300Z,13.83
2023-11-20T08:52:04.895Z,21.38
2023-11-20T08:54:33.747Z,18.27
2023-11-20T08:57:26.673Z,13.80
2023-11-20T08:59:56.790Z,13.93
2023-11-20T09:02:24.091Z,12.57
2023-11-20T09:04:51.474Z,14.30
2023-11-20T09:07:18.629Z,18.27
2023-11-20T09:09:47.432Z,19.30
2023-11-20T09:12:14.729Z,19.42
2023-11-20T09:14:41.929Z,16.83
2023-11-20T09:17:09.010Z,15.73
2023-11-20T09:19:36.070Z,17.67
2023-11-20T09:22:03.173Z,16.17
2023-11-20T09:24:30.440Z,19.98
2023-11-20T09:26:57.822Z,14.57
2023-11-20T09:29:25.036Z,13.07
2023-11-20T09:31:55.885Z,11.93
2023-11-20T09:34:25.136Z,13.88
2023-11-20T09:36:52.544Z,12.65
2023-11-20T09:39:20.327Z,11.27
2023-11-20T09:41:47.412Z,10.43
2023-11-20T09:44:14.934Z,13.32
2023-11-20T09:46:45.861Z,11.68
2023-11-20T09:49:24.075Z,15.43
2023-11-20T09:51:53.562Z,10.10
2023-11-20T09:54:21.535Z,11.60
2023-11-20T09:56:49.123Z,11.02
2023-11-20T09:59:16.200Z,9.20
2023-11-20T10:01:47.041Z,12.98
2023-11-20T10:04:18.179Z,13.77
2023-11-20T10:06:46.480Z,12.63
2023-11-20T10:09:14.193Z,11.05
2023-11-20T10:11:48.915Z,11.75
2023-11-20T10:14:21.855Z,13.02
2023-11-20T10:16:57.521Z,11.37
2023-11-20T10:19:25.193Z,14.05
2023-11-20T10:21:53.263Z,12.25
2023-11-20T10:24:22.515Z,11.45
2023-11-20T10:26:50.412Z,12.05
2023-11-20T10:29:18.001Z,12.73
2023-11-20T10:31:46.132Z,11.70
2023-11-20T10:34:14.000Z,14.95
2023-11-20T12:19:14.170Z,13.05
2023-11-20T12:21:44.865Z,10.50
2023-11-20T12:24:12.970Z,9.82
2023-11-20T12:26:40.040Z,13.32
2023-11-20T12:29:09.136Z,10.17
2023-11-20T12:31:36.330Z,10.90
2023-11-20T12:34:03.955Z,14.02
2023-11-20T12:36:32.001Z,8.75
2023-11-20T12:38:59.428Z,10.77
2023-11-20T12:41:28.877Z,11.73
2023-11-20T12:43:55.998Z,9.65
2023-11-20T12:46:23.488Z,21.90
2023-11-20T12:48:52.913Z,12.45
2023-11-20T12:51:37.781Z,9.60
2023-11-20T12:54:05.216Z,8.87
2023-11-20T12:56:32.282Z,12.55
2023-11-20T12:58:59.330Z,12.43
2023-11-20T13:01:26.732Z,16.73
2023-11-20T13:03:54.062Z,23.50
2023-11-20T13:06:21.404Z,16.43
2023-11-20T13:08:50.111Z,17.63
2023-11-20T13:11:19.177Z,12.20
2023-11-20T13:13:49.034Z,16.27
2023-11-20T13:16:18.706Z,15.55
2023-11-20T13:18:51.246Z,11.73
2023-11-20T13:21:27.285Z,11.77
2023-11-20T13:24:11.144Z,20.25
2023-11-20T13:26:45.083Z,10.70
2023-11-20T13:29:12.903Z,30.10
2023-11-20T13:31:40.248Z,30.83
2023-11-20T13:34:08.977Z,29.05
2023-11-20T13:36:41.292Z,13.43
2023-11-20T13:39:09.482Z,15.70
2023-11-20T13:41:37.254Z,10.73
2023-11-20T13:46:34.991Z,19.67
2023-11-20T13:49:02.497Z,28.88
2023-11-20T13:51:30.275Z,21.60
2023-11-20T13:53:58.967Z,20.02
2023-11-20T13:56:26.318Z,19.60
2023-11-20T13:58:53.408Z,27.75
2023-11-20T14:01:20.790Z,33.15
2023-11-20T14:03:48.657Z,30.85
2023-11-20T14:06:17.023Z,41.35
2023-11-20T14:08:44.407Z,40.33
2023-11-20T14:11:11.503Z,49.63
2023-11-20T14:13:38.684Z,34.10
2023-11-20T14:16:09.667Z,42.33
2023-11-20T14:18:37.858Z,35.85
2023-11-20T14:21:08.337Z,35.27
2023-11-20T14:23:36.309Z,35.83
2023-11-20T14:26:19.727Z,43.83
2023-11-20T14:28:51.961Z,36.20
2023-11-20T14:31:19.258Z,34.17
2023-11-20T14:33:46.914Z,31.33
2023-11-20T14:36:15.003Z,25.15
2023-11-20T14:38:42.323Z,32.25
2023-11-20T14:41:09.611Z,27.48
2023-11-20T14:43:37.612Z,36.17
2023-11-20T14:46:07.719Z,32.30
2023-11-20T14:48:36.721Z,38.90
2023-11-20T14:51:05.676Z,38.60
2023-11-20T14:53:32.790Z,53.10
2023-11-20T14:56:00.516Z,47.83
2023-11-20T14:58:27.606Z,55.60
2023-11-20T15:00:56.074Z,55.55
2023-11-20T15:03:25.700Z,53.55
2023-11-20T15:05:53.867Z,42.33
2023-11-20T15:08:21.437Z,47.47
2023-11-20T15:10:48.503Z,38.27
2023-11-20T15:13:15.663Z,44.40
2023-11-20T15:15:42.975Z,43.78
2023-11-20T15:18:10.158Z,64.88
2023-11-20T15:20:37.654Z,58.03
2023-11-20T15:23:05.504Z,76.30
2023-11-20T15:25:34.183Z,56.97
2023-11-20T15:28:01.615Z,40.40
2023-11-20T15:30:29.361Z,39.13
2023-11-20T15:32:57.729Z,32.10
2023-11-20T15:47:22.418Z,31.38
2023-11-20T15:49:49.805Z,27.63
2023-11-20T15:52:17.672Z,33.53
2023-11-20T15:54:44.839Z,35.50
